CAO8433 ZYTX-PANC
Flight info
| Callsign | CAO8433 |
|---|---|
| Flight time | N/A |
| Altitude | 34100 |
| Route | TOS71D TOSID A588 CHI W107 SANKO/K0902S1010 A326 DONVO G597 AGAVO/N0488F330 Y644 EGOBA G597 LANAT Y51 DISSH/N0484F350 Y51 SAMON Y142 GTC R217 SDE Y512 OATIS Y889 PUTER DCT 44N164E 46N171E 49N176E/N0480F370 DCT EYWAK DCT SPY J120 POETT A590 HAMND NEELL7 |
| Aircraft | B77L/H-SDE1E2E3FGHIJ2J3J4J5M1RWXY/LB1D1 |
Departure
| Time | 2026-04-16 18:54 |
|---|---|
| Airport | Shenyang Taoxian International Airport (ZYTX) |
Arrival
| Time | N/A |
|---|---|
| Airport | Ted Stevens Anchorage International Airport (PANC) |
| Time | Latitude | Longitude | Altitude | Speed | Heading |
|---|---|---|---|---|---|
| 2026-04-16 18:15 | 41.63431 | 123.48491 | 188 ft | 0 kts | 144° |
| 2026-04-16 18:43 | 41.63432 | 123.48490 | 188 ft | 1 kts | 144° |
| 2026-04-16 18:43 | 41.63445 | 123.48477 | 204 ft | 3 kts | 144° |
| 2026-04-16 18:44 | 41.63461 | 123.48462 | 204 ft | 3 kts | 145° |
| 2026-04-16 18:44 | 41.63478 | 123.48449 | 204 ft | 3 kts | 167° |
| 2026-04-16 18:44 | 41.63497 | 123.48447 | 204 ft | 3 kts | 194° |
| 2026-04-16 18:44 | 41.63515 | 123.48456 | 199 ft | 3 kts | 220° |
| 2026-04-16 18:45 | 41.63524 | 123.48468 | 203 ft | 2 kts | 230° |
| 2026-04-16 18:45 | 41.63537 | 123.48488 | 204 ft | 3 kts | 230° |
| 2026-04-16 18:45 | 41.63544 | 123.48499 | 204 ft | 0 kts | 230° |
| 2026-04-16 18:48 | 41.63528 | 123.48473 | 204 ft | 9 kts | 231° |
| 2026-04-16 18:48 | 41.63532 | 123.48365 | 200 ft | 14 kts | 316° |
| 2026-04-16 18:49 | 41.63620 | 123.48301 | 196 ft | 10 kts | 2° |
| 2026-04-16 18:49 | 41.63681 | 123.48348 | 196 ft | 10 kts | 0° |
| 2026-04-16 18:49 | 41.63750 | 123.48332 | 197 ft | 11 kts | 25° |
| 2026-04-16 18:49 | 41.63801 | 123.48404 | 206 ft | 11 kts | 50° |
| 2026-04-16 18:50 | 41.63848 | 123.48481 | 193 ft | 11 kts | 51° |
| 2026-04-16 18:50 | 41.63895 | 123.48557 | 207 ft | 11 kts | 40° |
| 2026-04-16 18:50 | 41.63951 | 123.48631 | 196 ft | 15 kts | 48° |
| 2026-04-16 18:50 | 41.64049 | 123.48783 | 198 ft | 24 kts | 47° |
| 2026-04-16 18:51 | 41.64160 | 123.48947 | 209 ft | 24 kts | 49° |
| 2026-04-16 18:51 | 41.64233 | 123.49058 | 210 ft | 24 kts | 49° |
| 2026-04-16 18:51 | 41.64378 | 123.49276 | 212 ft | 24 kts | 48° |
| 2026-04-16 18:51 | 41.64486 | 123.49441 | 213 ft | 24 kts | 47° |
| 2026-04-16 18:52 | 41.64560 | 123.49552 | 214 ft | 24 kts | 49° |
| 2026-04-16 18:52 | 41.64669 | 123.49717 | 215 ft | 24 kts | 48° |
| 2026-04-16 18:52 | 41.64771 | 123.49873 | 216 ft | 13 kts | 44° |
| 2026-04-16 18:52 | 41.64853 | 123.49879 | 214 ft | 14 kts | 317° |
| 2026-04-16 18:53 | 41.64918 | 123.49789 | 217 ft | 14 kts | 296° |
| 2026-04-16 18:53 | 41.64889 | 123.49679 | 212 ft | 14 kts | 225° |
| 2026-04-16 18:53 | 41.64720 | 123.49426 | 216 ft | 77 kts | 228° |
| 2026-04-16 18:53 | 41.64183 | 123.48619 | 206 ft | 155 kts | 228° |
| 2026-04-16 18:54 | 41.63372 | 123.47367 | 505 ft | 186 kts | 228° |
| 2026-04-16 18:54 | 41.62536 | 123.46096 | 1646 ft | 176 kts | 228° |
| 2026-04-16 18:54 | 41.61680 | 123.44810 | 2458 ft | 198 kts | 229° |
| 2026-04-16 18:54 | 41.60711 | 123.43317 | 3131 ft | 221 kts | 229° |
| 2026-04-16 18:55 | 41.59677 | 123.41693 | 4069 ft | 238 kts | 229° |
| 2026-04-16 18:55 | 41.58551 | 123.39917 | 4788 ft | 264 kts | 228° |
| 2026-04-16 18:55 | 41.57130 | 123.38178 | 5054 ft | 294 kts | 211° |
| 2026-04-16 18:55 | 41.55048 | 123.37538 | 5774 ft | 323 kts | 179° |
| 2026-04-16 18:56 | 41.52882 | 123.38544 | 7119 ft | 343 kts | 152° |
| 2026-04-16 18:56 | 41.51135 | 123.40805 | 8192 ft | 356 kts | 135° |
| 2026-04-16 18:56 | 41.49502 | 123.43332 | 8810 ft | 362 kts | 141° |
| 2026-04-16 18:56 | 41.47402 | 123.45133 | 9632 ft | 358 kts | 163° |
| 2026-04-16 18:57 | 41.45049 | 123.46136 | 10437 ft | 356 kts | 168° |
| 2026-04-16 18:57 | 41.42658 | 123.47110 | 11017 ft | 364 kts | 165° |
| 2026-04-16 18:57 | 41.40427 | 123.48840 | 11612 ft | 387 kts | 139° |
| 2026-04-16 18:58 | 41.38484 | 123.55556 | 13960 ft | 405 kts | 95° |
| 2026-04-16 18:58 | 41.38556 | 123.59340 | 14450 ft | 416 kts | 84° |
| 2026-04-16 18:58 | 41.39393 | 123.63080 | 15080 ft | 424 kts | 68° |
| 2026-04-16 18:58 | 41.40550 | 123.66698 | 15548 ft | 427 kts | 69° |
| 2026-04-16 18:59 | 41.41204 | 123.70558 | 15961 ft | 432 kts | 93° |
| 2026-04-16 18:59 | 41.40664 | 123.74438 | 16921 ft | 423 kts | 110° |
| 2026-04-16 18:59 | 41.39697 | 123.78140 | 17351 ft | 426 kts | 112° |
| 2026-04-16 18:59 | 41.38834 | 123.81953 | 17598 ft | 437 kts | 102° |
| 2026-04-16 19:00 | 41.38818 | 123.85986 | 18388 ft | 442 kts | 84° |
| 2026-04-16 19:00 | 41.39247 | 123.90091 | 18798 ft | 444 kts | 82° |
| 2026-04-16 19:00 | 41.39633 | 123.94138 | 18991 ft | 449 kts | 88° |
| 2026-04-16 19:00 | 41.39260 | 123.98242 | 19417 ft | 448 kts | 114° |
| 2026-04-16 19:01 | 41.37830 | 124.01587 | 20240 ft | 439 kts | 135° |
| 2026-04-16 19:01 | 41.35501 | 124.04098 | 21092 ft | 428 kts | 158° |
| 2026-04-16 19:01 | 41.32701 | 124.05232 | 21842 ft | 420 kts | 180° |
| 2026-04-16 19:01 | 41.29842 | 124.04841 | 22595 ft | 413 kts | 202° |
| 2026-04-16 19:02 | 41.27367 | 124.02999 | 23395 ft | 408 kts | 224° |
| 2026-04-16 19:02 | 41.25663 | 124.00009 | 24135 ft | 409 kts | 245° |
| 2026-04-16 19:02 | 41.24766 | 123.96471 | 24617 ft | 404 kts | 252° |
| 2026-04-16 19:02 | 41.23878 | 123.92909 | 24658 ft | 408 kts | 244° |
| 2026-04-16 19:03 | 41.22129 | 123.89931 | 25019 ft | 417 kts | 220° |
| 2026-04-16 19:03 | 41.19530 | 123.88188 | 25833 ft | 425 kts | 198° |
| 2026-04-16 19:03 | 41.16579 | 123.87747 | 26575 ft | 427 kts | 186° |
| 2026-04-16 19:03 | 41.13609 | 123.87717 | 26703 ft | 428 kts | 186° |
| 2026-04-16 19:04 | 41.10669 | 123.87260 | 26712 ft | 427 kts | 202° |
| 2026-04-16 19:04 | 41.08106 | 123.85324 | 27211 ft | 424 kts | 220° |
| 2026-04-16 19:04 | 41.05918 | 123.82774 | 27632 ft | 417 kts | 223° |
| 2026-04-16 19:04 | 41.03746 | 123.80193 | 27632 ft | 421 kts | 220° |
| 2026-04-16 19:05 | 41.01197 | 123.78230 | 27708 ft | 436 kts | 200° |
| 2026-04-16 19:05 | 40.98181 | 123.77614 | 28235 ft | 440 kts | 187° |
| 2026-04-16 19:05 | 40.95146 | 123.77480 | 28643 ft | 434 kts | 186° |
| 2026-04-16 19:06 | 40.89305 | 123.76106 | 28795 ft | 432 kts | 212° |
| 2026-04-16 19:06 | 40.86986 | 123.73617 | 29246 ft | 427 kts | 225° |
| 2026-04-16 19:06 | 40.85212 | 123.70456 | 29472 ft | 430 kts | 239° |
| 2026-04-16 19:07 | 40.82294 | 123.63588 | 29484 ft | 427 kts | 232° |
| 2026-04-16 19:07 | 40.80051 | 123.60989 | 29612 ft | 438 kts | 210° |
| 2026-04-16 19:07 | 40.77126 | 123.59789 | 30161 ft | 448 kts | 189° |
| 2026-04-16 19:07 | 40.74007 | 123.60058 | 30765 ft | 448 kts | 175° |
| 2026-04-16 19:08 | 40.70961 | 123.60803 | 30933 ft | 444 kts | 175° |
| 2026-04-16 19:08 | 40.67913 | 123.61157 | 30911 ft | 437 kts | 189° |
| 2026-04-16 19:08 | 40.65028 | 123.60015 | 31179 ft | 434 kts | 210° |
| 2026-04-16 19:08 | 40.62540 | 123.57880 | 31587 ft | 423 kts | 216° |
| 2026-04-16 19:09 | 40.60135 | 123.55659 | 31595 ft | 422 kts | 214° |
| 2026-04-16 19:09 | 40.57493 | 123.53980 | 31572 ft | 431 kts | 194° |
| 2026-04-16 19:09 | 40.54445 | 123.53925 | 31772 ft | 445 kts | 176° |
| 2026-04-16 19:09 | 40.51406 | 123.54635 | 31882 ft | 443 kts | 174° |
| 2026-04-16 19:10 | 40.48385 | 123.55323 | 31898 ft | 437 kts | 179° |
| 2026-04-16 19:10 | 40.45403 | 123.55036 | 31959 ft | 432 kts | 200° |
| 2026-04-16 19:10 | 40.42786 | 123.53192 | 32482 ft | 426 kts | 220° |